sensor_id;sensor_type;location;lat;lon;timestamp;P1;durP1;ratioP1;P2;durP2;ratioP2
27740;SDS011;15134;48.768;9.184;2022-10-18T00:01:03;8.57;;;5.07;;
27740;SDS011;15134;48.768;9.184;2022-10-18T00:03:30;8.38;;;4.47;;
27740;SDS011;15134;48.768;9.184;2022-10-18T00:05:56;12.07;;;4.43;;
27740;SDS011;15134;48.768;9.184;2022-10-18T00:08:23;16.40;;;4.70;;
27740;SDS011;15134;48.768;9.184;2022-10-18T00:10:49;8.60;;;4.50;;
27740;SDS011;15134;48.768;9.184;2022-10-18T00:13:15;10.90;;;4.47;;
27740;SDS011;15134;48.768;9.184;2022-10-18T00:15:48;11.52;;;4.60;;
27740;SDS011;15134;48.768;9.184;2022-10-18T00:18:15;7.30;;;4.18;;
27740;SDS011;15134;48.768;9.184;2022-10-18T00:20:40;10.07;;;4.53;;
27740;SDS011;15134;48.768;9.184;2022-10-18T00:23:06;13.40;;;4.10;;
27740;SDS011;15134;48.768;9.184;2022-10-18T00:25:32;13.93;;;4.53;;
27740;SDS011;15134;48.768;9.184;2022-10-18T00:27:57;11.13;;;4.23;;
27740;SDS011;15134;48.768;9.184;2022-10-18T00:30:23;9.60;;;4.07;;
27740;SDS011;15134;48.768;9.184;2022-10-18T00:32:49;9.55;;;4.07;;
27740;SDS011;15134;48.768;9.184;2022-10-18T00:35:15;11.40;;;4.37;;
27740;SDS011;15134;48.768;9.184;2022-10-18T00:37:41;10.80;;;4.80;;
27740;SDS011;15134;48.768;9.184;2022-10-18T00:40:07;9.07;;;4.17;;
27740;SDS011;15134;48.768;9.184;2022-10-18T00:48:00;9.35;;;4.80;;
27740;SDS011;15134;48.768;9.184;2022-10-18T00:50:29;13.48;;;4.60;;
27740;SDS011;15134;48.768;9.184;2022-10-18T00:52:59;12.93;;;4.55;;
27740;SDS011;15134;48.768;9.184;2022-10-18T00:55:29;11.45;;;4.57;;
27740;SDS011;15134;48.768;9.184;2022-10-18T00:57:56;13.20;;;4.50;;
27740;SDS011;15134;48.768;9.184;2022-10-18T01:00:22;8.70;;;4.30;;
27740;SDS011;15134;48.768;9.184;2022-10-18T01:02:48;11.13;;;4.77;;
27740;SDS011;15134;48.768;9.184;2022-10-18T01:05:15;11.73;;;4.70;;
27740;SDS011;15134;48.768;9.184;2022-10-18T01:07:58;9.30;;;4.40;;
27740;SDS011;15134;48.768;9.184;2022-10-18T01:13:01;9.40;;;4.07;;
27740;SDS011;15134;48.768;9.184;2022-10-18T01:15:31;10.88;;;3.90;;
27740;SDS011;15134;48.768;9.184;2022-10-18T01:31:20;8.70;;;4.15;;
27740;SDS011;15134;48.768;9.184;2022-10-18T01:33:55;11.25;;;3.67;;
27740;SDS011;15134;48.768;9.184;2022-10-18T01:36:31;11.50;;;3.92;;
27740;SDS011;15134;48.768;9.184;2022-10-18T01:39:04;9.82;;;3.78;;
27740;SDS011;15134;48.768;9.184;2022-10-18T01:41:42;10.38;;;3.63;;
27740;SDS011;15134;48.768;9.184;2022-10-18T01:44:17;7.50;;;3.80;;
27740;SDS011;15134;48.768;9.184;2022-10-18T01:46:50;9.20;;;4.20;;
27740;SDS011;15134;48.768;9.184;2022-10-18T01:49:18;12.07;;;4.05;;
27740;SDS011;15134;48.768;9.184;2022-10-18T01:51:44;15.13;;;4.05;;
27740;SDS011;15134;48.768;9.184;2022-10-18T01:54:11;10.23;;;3.90;;
27740;SDS011;15134;48.768;9.184;2022-10-18T01:56:44;9.90;;;3.95;;
27740;SDS011;15134;48.768;9.184;2022-10-18T02:07:14;14.60;;;4.15;;
27740;SDS011;15134;48.768;9.184;2022-10-18T02:09:54;8.82;;;3.55;;
27740;SDS011;15134;48.768;9.184;2022-10-18T02:12:30;8.40;;;4.20;;
27740;SDS011;15134;48.768;9.184;2022-10-18T02:14:58;6.10;;;3.55;;
27740;SDS011;15134;48.768;9.184;2022-10-18T02:17:27;11.15;;;3.92;;
27740;SDS011;15134;48.768;9.184;2022-10-18T02:19:54;9.38;;;3.35;;
27740;SDS011;15134;48.768;9.184;2022-10-18T02:22:21;9.35;;;3.70;;
27740;SDS011;15134;48.768;9.184;2022-10-18T02:24:53;11.30;;;3.45;;
27740;SDS011;15134;48.768;9.184;2022-10-18T02:27:21;13.27;;;4.07;;
27740;SDS011;15134;48.768;9.184;2022-10-18T02:29:47;10.37;;;4.33;;
27740;SDS011;15134;48.768;9.184;2022-10-18T02:32:16;7.57;;;3.53;;
27740;SDS011;15134;48.768;9.184;2022-10-18T02:34:53;8.02;;;3.20;;
27740;SDS011;15134;48.768;9.184;2022-10-18T02:37:20;7.93;;;3.35;;
27740;SDS011;15134;48.768;9.184;2022-10-18T02:39:48;7.60;;;3.30;;
27740;SDS011;15134;48.768;9.184;2022-10-18T02:42:15;7.57;;;3.25;;
27740;SDS011;15134;48.768;9.184;2022-10-18T02:44:41;7.78;;;3.97;;
27740;SDS011;15134;48.768;9.184;2022-10-18T02:47:08;9.83;;;3.60;;
27740;SDS011;15134;48.768;9.184;2022-10-18T02:49:35;8.10;;;3.22;;
27740;SDS011;15134;48.768;9.184;2022-10-18T02:52:01;10.47;;;3.47;;
27740;SDS011;15134;48.768;9.184;2022-10-18T02:54:26;6.80;;;3.70;;
27740;SDS011;15134;48.768;9.184;2022-10-18T02:56:52;8.07;;;4.30;;
27740;SDS011;15134;48.768;9.184;2022-10-18T02:59:18;8.20;;;3.70;;
27740;SDS011;15134;48.768;9.184;2022-10-18T03:01:43;7.63;;;3.47;;
27740;SDS011;15134;48.768;9.184;2022-10-18T03:04:10;9.83;;;3.53;;
27740;SDS011;15134;48.768;9.184;2022-10-18T03:06:36;7.57;;;3.35;;
27740;SDS011;15134;48.768;9.184;2022-10-18T03:09:02;5.83;;;3.37;;
27740;SDS011;15134;48.768;9.184;2022-10-18T03:11:29;8.27;;;3.38;;
27740;SDS011;15134;48.768;9.184;2022-10-18T03:13:55;17.13;;;4.33;;
27740;SDS011;15134;48.768;9.184;2022-10-18T03:16:20;9.47;;;3.73;;
27740;SDS011;15134;48.768;9.184;2022-10-18T03:18:46;8.57;;;3.57;;
27740;SDS011;15134;48.768;9.184;2022-10-18T03:21:12;6.37;;;3.50;;
27740;SDS011;15134;48.768;9.184;2022-10-18T03:23:37;7.83;;;4.20;;
27740;SDS011;15134;48.768;9.184;2022-10-18T03:26:05;14.95;;;4.15;;
27740;SDS011;15134;48.768;9.184;2022-10-18T03:28:31;10.03;;;3.90;;
27740;SDS011;15134;48.768;9.184;2022-10-18T03:31:00;8.00;;;3.63;;
27740;SDS011;15134;48.768;9.184;2022-10-18T03:33:28;11.70;;;4.47;;
27740;SDS011;15134;48.768;9.184;2022-10-18T03:35:54;13.55;;;4.15;;
27740;SDS011;15134;48.768;9.184;2022-10-18T03:38:20;12.87;;;5.03;;
27740;SDS011;15134;48.768;9.184;2022-10-18T03:40:46;6.97;;;3.67;;
27740;SDS011;15134;48.768;9.184;2022-10-18T03:43:12;10.80;;;3.70;;
27740;SDS011;15134;48.768;9.184;2022-10-18T03:45:38;7.53;;;3.77;;
27740;SDS011;15134;48.768;9.184;2022-10-18T03:50:30;7.60;;;3.88;;
27740;SDS011;15134;48.768;9.184;2022-10-18T03:52:55;9.57;;;4.50;;
27740;SDS011;15134;48.768;9.184;2022-10-18T03:55:21;8.00;;;3.63;;
27740;SDS011;15134;48.768;9.184;2022-10-18T03:57:47;7.20;;;3.97;;
27740;SDS011;15134;48.768;9.184;2022-10-18T04:00:13;10.83;;;3.83;;
27740;SDS011;15134;48.768;9.184;2022-10-18T04:02:39;11.45;;;3.47;;
27740;SDS011;15134;48.768;9.184;2022-10-18T04:05:05;15.93;;;3.97;;
27740;SDS011;15134;48.768;9.184;2022-10-18T04:07:32;8.43;;;3.50;;
27740;SDS011;15134;48.768;9.184;2022-10-18T04:09:58;10.20;;;3.65;;
27740;SDS011;15134;48.768;9.184;2022-10-18T04:12:24;7.87;;;3.53;;
27740;SDS011;15134;48.768;9.184;2022-10-18T04:14:49;10.27;;;3.70;;
27740;SDS011;15134;48.768;9.184;2022-10-18T04:17:15;14.57;;;4.23;;
27740;SDS011;15134;48.768;9.184;2022-10-18T04:19:41;11.17;;;3.30;;
27740;SDS011;15134;48.768;9.184;2022-10-18T04:22:07;11.13;;;3.73;;
27740;SDS011;15134;48.768;9.184;2022-10-18T04:24:33;6.88;;;3.35;;
27740;SDS011;15134;48.768;9.184;2022-10-18T04:26:59;9.13;;;3.70;;
27740;SDS011;15134;48.768;9.184;2022-10-18T04:29:25;10.47;;;4.83;;
27740;SDS011;15134;48.768;9.184;2022-10-18T04:31:50;9.83;;;5.03;;
27740;SDS011;15134;48.768;9.184;2022-10-18T04:34:16;15.77;;;9.73;;
27740;SDS011;15134;48.768;9.184;2022-10-18T04:36:41;18.57;;;10.17;;
27740;SDS011;15134;48.768;9.184;2022-10-18T04:39:07;23.07;;;14.03;;
27740;SDS011;15134;48.768;9.184;2022-10-18T04:41:33;24.53;;;9.23;;
27740;SDS011;15134;48.768;9.184;2022-10-18T04:43:58;13.50;;;6.97;;
27740;SDS011;15134;48.768;9.184;2022-10-18T04:46:24;9.40;;;3.63;;
27740;SDS011;15134;48.768;9.184;2022-10-18T04:48:50;7.17;;;3.97;;
27740;SDS011;15134;48.768;9.184;2022-10-18T04:51:15;7.97;;;3.30;;
27740;SDS011;15134;48.768;9.184;2022-10-18T04:53:41;6.53;;;3.10;;
27740;SDS011;15134;48.768;9.184;2022-10-18T04:56:07;9.83;;;4.53;;
27740;SDS011;15134;48.768;9.184;2022-10-18T04:58:33;7.80;;;3.42;;
27740;SDS011;15134;48.768;9.184;2022-10-18T05:00:58;6.70;;;3.33;;
27740;SDS011;15134;48.768;9.184;2022-10-18T05:03:24;9.50;;;4.70;;
27740;SDS011;15134;48.768;9.184;2022-10-18T05:05:50;8.43;;;4.07;;
27740;SDS011;15134;48.768;9.184;2022-10-18T05:08:15;13.27;;;3.80;;
27740;SDS011;15134;48.768;9.184;2022-10-18T05:10:41;9.50;;;3.63;;
27740;SDS011;15134;48.768;9.184;2022-10-18T05:13:07;10.17;;;4.10;;
27740;SDS011;15134;48.768;9.184;2022-10-18T05:15:32;6.73;;;4.07;;
27740;SDS011;15134;48.768;9.184;2022-10-18T05:17:58;7.97;;;3.23;;
27740;SDS011;15134;48.768;9.184;2022-10-18T05:20:24;5.90;;;3.60;;
27740;SDS011;15134;48.768;9.184;2022-10-18T05:22:49;10.20;;;3.83;;
27740;SDS011;15134;48.768;9.184;2022-10-18T05:25:15;6.23;;;3.27;;
27740;SDS011;15134;48.768;9.184;2022-10-18T05:27:41;7.50;;;2.87;;
27740;SDS011;15134;48.768;9.184;2022-10-18T05:30:06;10.93;;;3.50;;
27740;SDS011;15134;48.768;9.184;2022-10-18T05:32:32;7.60;;;3.40;;
27740;SDS011;15134;48.768;9.184;2022-10-18T05:34:58;12.57;;;3.33;;
27740;SDS011;15134;48.768;9.184;2022-10-18T05:37:24;7.50;;;3.13;;
27740;SDS011;15134;48.768;9.184;2022-10-18T05:39:49;11.07;;;3.90;;
27740;SDS011;15134;48.768;9.184;2022-10-18T05:42:15;13.77;;;4.20;;
27740;SDS011;15134;48.768;9.184;2022-10-18T05:44:41;12.07;;;4.32;;
27740;SDS011;15134;48.768;9.184;2022-10-18T05:47:07;8.50;;;3.20;;
27740;SDS011;15134;48.768;9.184;2022-10-18T05:49:32;7.83;;;3.33;;
27740;SDS011;15134;48.768;9.184;2022-10-18T05:51:58;10.17;;;3.73;;
27740;SDS011;15134;48.768;9.184;2022-10-18T05:54:24;9.17;;;3.70;;
27740;SDS011;15134;48.768;9.184;2022-10-18T05:56:49;7.37;;;3.73;;
27740;SDS011;15134;48.768;9.184;2022-10-18T05:59:15;9.63;;;2.90;;
27740;SDS011;15134;48.768;9.184;2022-10-18T06:01:41;6.63;;;3.83;;
27740;SDS011;15134;48.768;9.184;2022-10-18T06:04:07;8.27;;;3.50;;
27740;SDS011;15134;48.768;9.184;2022-10-18T06:06:36;7.43;;;3.17;;
27740;SDS011;15134;48.768;9.184;2022-10-18T06:09:03;8.02;;;3.55;;
27740;SDS011;15134;48.768;9.184;2022-10-18T06:11:30;8.40;;;3.40;;
27740;SDS011;15134;48.768;9.184;2022-10-18T06:13:56;6.57;;;3.20;;
27740;SDS011;15134;48.768;9.184;2022-10-18T06:16:22;5.13;;;3.00;;
27740;SDS011;15134;48.768;9.184;2022-10-18T06:18:49;9.80;;;3.55;;
27740;SDS011;15134;48.768;9.184;2022-10-18T06:21:16;8.77;;;3.17;;
27740;SDS011;15134;48.768;9.184;2022-10-18T06:23:42;10.55;;;4.10;;
27740;SDS011;15134;48.768;9.184;2022-10-18T06:26:12;11.65;;;6.15;;
27740;SDS011;15134;48.768;9.184;2022-10-18T06:28:37;11.20;;;6.03;;
27740;SDS011;15134;48.768;9.184;2022-10-18T06:31:04;15.17;;;8.60;;
27740;SDS011;15134;48.768;9.184;2022-10-18T06:33:30;6.53;;;4.00;;
27740;SDS011;15134;48.768;9.184;2022-10-18T06:35:58;8.38;;;3.78;;
27740;SDS011;15134;48.768;9.184;2022-10-18T06:38:25;7.90;;;3.30;;
27740;SDS011;15134;48.768;9.184;2022-10-18T06:40:52;10.40;;;3.80;;
27740;SDS011;15134;48.768;9.184;2022-10-18T06:43:18;9.15;;;3.70;;
27740;SDS011;15134;48.768;9.184;2022-10-18T06:45:44;7.72;;;3.50;;
27740;SDS011;15134;48.768;9.184;2022-10-18T06:48:10;8.40;;;3.30;;
27740;SDS011;15134;48.768;9.184;2022-10-18T06:50:35;9.47;;;3.80;;
27740;SDS011;15134;48.768;9.184;2022-10-18T06:53:01;8.00;;;3.77;;
27740;SDS011;15134;48.768;9.184;2022-10-18T06:55:29;9.88;;;4.05;;
27740;SDS011;15134;48.768;9.184;2022-10-18T07:00:20;11.70;;;4.18;;
27740;SDS011;15134;48.768;9.184;2022-10-18T07:02:46;7.53;;;3.30;;
27740;SDS011;15134;48.768;9.184;2022-10-18T07:05:11;6.77;;;3.43;;
27740;SDS011;15134;48.768;9.184;2022-10-18T07:07:37;8.47;;;3.57;;
27740;SDS011;15134;48.768;9.184;2022-10-18T07:10:03;8.95;;;4.03;;
27740;SDS011;15134;48.768;9.184;2022-10-18T07:14:56;8.68;;;3.63;;
27740;SDS011;15134;48.768;9.184;2022-10-18T07:17:22;7.63;;;3.30;;
27740;SDS011;15134;48.768;9.184;2022-10-18T07:19:47;8.67;;;3.50;;
27740;SDS011;15134;48.768;9.184;2022-10-18T07:22:13;8.13;;;3.47;;
27740;SDS011;15134;48.768;9.184;2022-10-18T07:24:39;6.97;;;3.17;;
27740;SDS011;15134;48.768;9.184;2022-10-18T07:27:05;9.53;;;3.10;;
27740;SDS011;15134;48.768;9.184;2022-10-18T07:34:23;9.25;;;3.88;;
27740;SDS011;15134;48.768;9.184;2022-10-18T07:36:49;7.87;;;2.97;;
27740;SDS011;15134;48.768;9.184;2022-10-18T07:39:14;6.90;;;3.50;;
27740;SDS011;15134;48.768;9.184;2022-10-18T07:41:40;9.60;;;3.70;;
27740;SDS011;15134;48.768;9.184;2022-10-18T07:44:06;7.53;;;3.77;;
27740;SDS011;15134;48.768;9.184;2022-10-18T07:46:32;8.67;;;3.27;;
27740;SDS011;15134;48.768;9.184;2022-10-18T07:48:57;7.97;;;3.93;;
27740;SDS011;15134;48.768;9.184;2022-10-18T07:51:23;10.25;;;3.80;;
27740;SDS011;15134;48.768;9.184;2022-10-18T07:56:17;10.50;;;3.17;;
27740;SDS011;15134;48.768;9.184;2022-10-18T07:58:45;6.40;;;3.38;;
27740;SDS011;15134;48.768;9.184;2022-10-18T08:01:13;7.88;;;3.38;;
27740;SDS011;15134;48.768;9.184;2022-10-18T08:03:40;7.05;;;3.13;;
27740;SDS011;15134;48.768;9.184;2022-10-18T08:08:33;8.20;;;3.42;;
27740;SDS011;15134;48.768;9.184;2022-10-18T08:11:01;8.63;;;3.22;;
27740;SDS011;15134;48.768;9.184;2022-10-18T08:13:28;7.00;;;3.20;;
27740;SDS011;15134;48.768;9.184;2022-10-18T08:15:58;5.85;;;3.45;;
27740;SDS011;15134;48.768;9.184;2022-10-18T08:18:29;8.55;;;3.47;;
27740;SDS011;15134;48.768;9.184;2022-10-18T08:20:55;9.77;;;3.88;;
27740;SDS011;15134;48.768;9.184;2022-10-18T08:23:23;9.07;;;3.20;;
27740;SDS011;15134;48.768;9.184;2022-10-18T08:25:48;6.30;;;3.37;;
27740;SDS011;15134;48.768;9.184;2022-10-18T08:28:14;6.27;;;3.23;;
27740;SDS011;15134;48.768;9.184;2022-10-18T08:30:41;6.55;;;3.50;;
27740;SDS011;15134;48.768;9.184;2022-10-18T08:33:07;8.73;;;3.73;;
27740;SDS011;15134;48.768;9.184;2022-10-18T08:35:33;8.57;;;3.77;;
27740;SDS011;15134;48.768;9.184;2022-10-18T08:37:58;9.47;;;3.20;;
27740;SDS011;15134;48.768;9.184;2022-10-18T08:40:24;7.10;;;3.40;;
27740;SDS011;15134;48.768;9.184;2022-10-18T08:45:48;9.60;;;5.97;;
27740;SDS011;15134;48.768;9.184;2022-10-18T08:48:16;10.90;;;4.30;;
27740;SDS011;15134;48.768;9.184;2022-10-18T08:50:47;11.02;;;6.88;;
27740;SDS011;15134;48.768;9.184;2022-10-18T08:53:16;12.18;;;4.05;;
27740;SDS011;15134;48.768;9.184;2022-10-18T08:55:48;8.20;;;3.55;;
27740;SDS011;15134;48.768;9.184;2022-10-18T08:58:28;12.20;;;5.50;;
27740;SDS011;15134;48.768;9.184;2022-10-18T09:18:54;11.15;;;6.40;;
27740;SDS011;15134;48.768;9.184;2022-10-18T09:21:17;6.15;;;3.10;;
27740;SDS011;15134;48.768;9.184;2022-10-18T09:26:27;8.35;;;3.95;;
27740;SDS011;15134;48.768;9.184;2022-10-18T09:37:22;7.97;;;4.47;;
27740;SDS011;15134;48.768;9.184;2022-10-18T09:39:51;13.77;;;5.88;;
27740;SDS011;15134;48.768;9.184;2022-10-18T09:42:26;10.57;;;5.20;;
27740;SDS011;15134;48.768;9.184;2022-10-18T09:44:57;12.23;;;6.43;;
27740;SDS011;15134;48.768;9.184;2022-10-18T09:48:00;7.85;;;4.40;;
27740;SDS011;15134;48.768;9.184;2022-10-18T09:50:28;10.13;;;3.13;;
27740;SDS011;15134;48.768;9.184;2022-10-18T09:53:11;12.40;;;4.00;;
27740;SDS011;15134;48.768;9.184;2022-10-18T09:58:30;11.55;;;4.22;;
27740;SDS011;15134;48.768;9.184;2022-10-18T10:01:29;12.23;;;3.30;;
27740;SDS011;15134;48.768;9.184;2022-10-18T10:03:56;8.07;;;3.88;;
27740;SDS011;15134;48.768;9.184;2022-10-18T10:06:26;8.17;;;2.97;;
27740;SDS011;15134;48.768;9.184;2022-10-18T10:09:14;7.35;;;3.33;;
27740;SDS011;15134;48.768;9.184;2022-10-18T10:11:44;8.73;;;3.45;;
27740;SDS011;15134;48.768;9.184;2022-10-18T10:14:16;9.88;;;2.88;;
27740;SDS011;15134;48.768;9.184;2022-10-18T10:19:20;10.13;;;3.67;;
27740;SDS011;15134;48.768;9.184;2022-10-18T10:21:56;9.80;;;3.25;;
27740;SDS011;15134;48.768;9.184;2022-10-18T10:24:33;8.88;;;3.40;;
27740;SDS011;15134;48.768;9.184;2022-10-18T10:27:15;7.97;;;3.63;;
27740;SDS011;15134;48.768;9.184;2022-10-18T10:29:55;8.90;;;4.07;;
27740;SDS011;15134;48.768;9.184;2022-10-18T10:32:24;9.93;;;3.35;;
27740;SDS011;15134;48.768;9.184;2022-10-18T10:34:51;8.23;;;3.97;;
27740;SDS011;15134;48.768;9.184;2022-10-18T10:42:28;14.05;;;6.45;;
27740;SDS011;15134;48.768;9.184;2022-10-18T10:44:55;13.25;;;6.85;;
27740;SDS011;15134;48.768;9.184;2022-10-18T10:47:28;13.85;;;7.75;;
27740;SDS011;15134;48.768;9.184;2022-10-18T10:50:07;13.10;;;4.95;;
27740;SDS011;15134;48.768;9.184;2022-10-18T10:52:36;10.98;;;5.35;;
27740;SDS011;15134;48.768;9.184;2022-10-18T10:55:04;9.15;;;3.28;;
27740;SDS011;15134;48.768;9.184;2022-10-18T10:57:41;12.70;;;5.93;;
27740;SDS011;15134;48.768;9.184;2022-10-18T11:00:29;8.80;;;4.38;;
27740;SDS011;15134;48.768;9.184;2022-10-18T11:03:21;9.05;;;4.22;;
27740;SDS011;15134;48.768;9.184;2022-10-18T11:05:51;11.90;;;4.38;;
27740;SDS011;15134;48.768;9.184;2022-10-18T11:08:23;10.23;;;3.50;;
27740;SDS011;15134;48.768;9.184;2022-10-18T11:10:59;11.98;;;3.92;;
27740;SDS011;15134;48.768;9.184;2022-10-18T11:13:30;8.00;;;3.30;;
27740;SDS011;15134;48.768;9.184;2022-10-18T11:16:36;5.95;;;3.33;;
27740;SDS011;15134;48.768;9.184;2022-10-18T11:19:13;7.25;;;3.63;;
27740;SDS011;15134;48.768;9.184;2022-10-18T11:21:51;8.23;;;3.80;;
27740;SDS011;15134;48.768;9.184;2022-10-18T11:24:17;9.02;;;4.10;;
27740;SDS011;15134;48.768;9.184;2022-10-18T11:43:11;8.48;;;3.63;;
27740;SDS011;15134;48.768;9.184;2022-10-18T11:45:53;12.73;;;3.58;;
27740;SDS011;15134;48.768;9.184;2022-10-18T11:51:01;7.38;;;3.80;;
27740;SDS011;15134;48.768;9.184;2022-10-18T12:02:13;14.77;;;5.38;;
27740;SDS011;15134;48.768;9.184;2022-10-18T12:05:04;10.82;;;3.85;;
27740;SDS011;15134;48.768;9.184;2022-10-18T12:07:34;9.95;;;3.50;;
27740;SDS011;15134;48.768;9.184;2022-10-18T12:10:04;7.45;;;3.33;;
27740;SDS011;15134;48.768;9.184;2022-10-18T12:12:36;9.27;;;3.88;;
27740;SDS011;15134;48.768;9.184;2022-10-18T12:15:15;14.50;;;3.58;;
27740;SDS011;15134;48.768;9.184;2022-10-18T12:17:44;21.67;;;9.07;;
27740;SDS011;15134;48.768;9.184;2022-10-18T12:20:19;8.60;;;3.53;;
27740;SDS011;15134;48.768;9.184;2022-10-18T12:25:18;11.90;;;4.13;;
27740;SDS011;15134;48.768;9.184;2022-10-18T12:30:36;11.40;;;4.82;;
27740;SDS011;15134;48.768;9.184;2022-10-18T12:33:14;15.07;;;2.92;;
27740;SDS011;15134;48.768;9.184;2022-10-18T12:36:12;11.25;;;3.00;;
27740;SDS011;15134;48.768;9.184;2022-10-18T12:38:57;14.88;;;4.15;;
27740;SDS011;15134;48.768;9.184;2022-10-18T12:41:26;6.57;;;2.88;;
27740;SDS011;15134;48.768;9.184;2022-10-18T12:44:17;10.73;;;3.55;;
27740;SDS011;15134;48.768;9.184;2022-10-18T12:46:56;11.80;;;3.55;;
27740;SDS011;15134;48.768;9.184;2022-10-18T12:49:26;6.57;;;2.65;;
27740;SDS011;15134;48.768;9.184;2022-10-18T12:51:58;12.90;;;6.28;;
27740;SDS011;15134;48.768;9.184;2022-10-18T12:54:30;9.77;;;3.17;;
27740;SDS011;15134;48.768;9.184;2022-10-18T12:57:01;10.27;;;2.40;;
27740;SDS011;15134;48.768;9.184;2022-10-18T13:20:20;7.15;;;3.72;;
27740;SDS011;15134;48.768;9.184;2022-10-18T13:33:52;9.75;;;4.63;;
27740;SDS011;15134;48.768;9.184;2022-10-18T13:36:24;8.30;;;3.53;;
27740;SDS011;15134;48.768;9.184;2022-10-18T13:41:31;8.50;;;3.13;;
27740;SDS011;15134;48.768;9.184;2022-10-18T13:52:07;6.75;;;2.10;;
27740;SDS011;15134;48.768;9.184;2022-10-18T14:00:55;6.60;;;3.30;;
27740;SDS011;15134;48.768;9.184;2022-10-18T14:06:49;5.15;;;1.90;;
27740;SDS011;15134;48.768;9.184;2022-10-18T14:09:23;6.43;;;1.88;;
27740;SDS011;15134;48.768;9.184;2022-10-18T14:11:54;6.70;;;2.40;;
27740;SDS011;15134;48.768;9.184;2022-10-18T14:17:21;6.70;;;2.35;;
27740;SDS011;15134;48.768;9.184;2022-10-18T14:20:25;5.45;;;2.65;;
27740;SDS011;15134;48.768;9.184;2022-10-18T14:25:44;6.18;;;3.08;;
27740;SDS011;15134;48.768;9.184;2022-10-18T14:28:20;5.20;;;2.88;;
27740;SDS011;15134;48.768;9.184;2022-10-18T14:31:00;6.03;;;2.92;;
27740;SDS011;15134;48.768;9.184;2022-10-18T14:36:12;11.98;;;5.25;;
27740;SDS011;15134;48.768;9.184;2022-10-18T14:38:53;9.65;;;3.45;;
27740;SDS011;15134;48.768;9.184;2022-10-18T14:41:32;8.63;;;3.90;;
27740;SDS011;15134;48.768;9.184;2022-10-18T14:46:46;15.65;;;9.77;;
27740;SDS011;15134;48.768;9.184;2022-10-18T14:49:25;13.23;;;6.15;;
27740;SDS011;15134;48.768;9.184;2022-10-18T14:51:51;13.30;;;6.20;;
27740;SDS011;15134;48.768;9.184;2022-10-18T14:54:22;10.40;;;5.68;;
27740;SDS011;15134;48.768;9.184;2022-10-18T14:56:51;8.85;;;4.05;;
27740;SDS011;15134;48.768;9.184;2022-10-18T14:59:19;9.07;;;3.10;;
27740;SDS011;15134;48.768;9.184;2022-10-18T15:02:09;11.00;;;3.25;;
27740;SDS011;15134;48.768;9.184;2022-10-18T15:04:38;6.97;;;2.90;;
27740;SDS011;15134;48.768;9.184;2022-10-18T15:07:04;7.53;;;3.90;;
27740;SDS011;15134;48.768;9.184;2022-10-18T15:09:32;8.50;;;3.42;;
27740;SDS011;15134;48.768;9.184;2022-10-18T15:12:01;4.90;;;2.70;;
27740;SDS011;15134;48.768;9.184;2022-10-18T15:14:28;10.52;;;4.22;;
27740;SDS011;15134;48.768;9.184;2022-10-18T15:16:57;11.30;;;6.00;;
27740;SDS011;15134;48.768;9.184;2022-10-18T15:19:27;6.28;;;3.15;;
27740;SDS011;15134;48.768;9.184;2022-10-18T15:21:55;10.75;;;3.63;;
27740;SDS011;15134;48.768;9.184;2022-10-18T15:26:52;7.78;;;3.15;;
27740;SDS011;15134;48.768;9.184;2022-10-18T15:29:20;7.13;;;3.92;;
27740;SDS011;15134;48.768;9.184;2022-10-18T15:31:47;8.00;;;3.17;;
27740;SDS011;15134;48.768;9.184;2022-10-18T15:36:46;6.70;;;3.05;;
27740;SDS011;15134;48.768;9.184;2022-10-18T15:39:14;8.75;;;3.80;;
27740;SDS011;15134;48.768;9.184;2022-10-18T15:41:52;9.70;;;5.25;;
27740;SDS011;15134;48.768;9.184;2022-10-18T15:52:29;6.47;;;4.03;;
27740;SDS011;15134;48.768;9.184;2022-10-18T15:54:57;8.30;;;3.95;;
27740;SDS011;15134;48.768;9.184;2022-10-18T15:57:23;10.27;;;4.13;;
27740;SDS011;15134;48.768;9.184;2022-10-18T15:59:54;8.40;;;3.35;;
27740;SDS011;15134;48.768;9.184;2022-10-18T16:02:37;9.02;;;4.60;;
27740;SDS011;15134;48.768;9.184;2022-10-18T16:05:02;10.40;;;4.87;;
27740;SDS011;15134;48.768;9.184;2022-10-18T16:07:28;7.55;;;3.38;;
27740;SDS011;15134;48.768;9.184;2022-10-18T16:09:54;6.47;;;3.60;;
27740;SDS011;15134;48.768;9.184;2022-10-18T16:12:20;6.60;;;4.03;;
27740;SDS011;15134;48.768;9.184;2022-10-18T16:14:45;9.90;;;4.20;;
27740;SDS011;15134;48.768;9.184;2022-10-18T16:17:11;13.60;;;8.20;;
27740;SDS011;15134;48.768;9.184;2022-10-18T16:19:42;16.17;;;9.30;;
27740;SDS011;15134;48.768;9.184;2022-10-18T16:22:11;47.35;;;28.85;;
27740;SDS011;15134;48.768;9.184;2022-10-18T16:24:37;10.88;;;6.55;;
27740;SDS011;15134;48.768;9.184;2022-10-18T16:27:04;13.95;;;7.57;;
27740;SDS011;15134;48.768;9.184;2022-10-18T16:29:30;11.82;;;6.30;;
27740;SDS011;15134;48.768;9.184;2022-10-18T16:31:57;8.15;;;4.70;;
27740;SDS011;15134;48.768;9.184;2022-10-18T16:34:27;9.52;;;6.32;;
27740;SDS011;15134;48.768;9.184;2022-10-18T16:36:52;8.00;;;4.38;;
27740;SDS011;15134;48.768;9.184;2022-10-18T16:41:46;8.65;;;4.13;;
27740;SDS011;15134;48.768;9.184;2022-10-18T16:44:12;6.80;;;4.60;;
27740;SDS011;15134;48.768;9.184;2022-10-18T16:46:39;9.27;;;4.43;;
27740;SDS011;15134;48.768;9.184;2022-10-18T16:49:05;7.63;;;4.43;;
27740;SDS011;15134;48.768;9.184;2022-10-18T16:51:31;8.80;;;5.30;;
27740;SDS011;15134;48.768;9.184;2022-10-18T16:53:57;9.38;;;4.95;;
27740;SDS011;15134;48.768;9.184;2022-10-18T16:56:24;7.57;;;4.80;;
27740;SDS011;15134;48.768;9.184;2022-10-18T16:58:52;7.53;;;4.70;;
27740;SDS011;15134;48.768;9.184;2022-10-18T17:01:19;9.35;;;5.30;;
27740;SDS011;15134;48.768;9.184;2022-10-18T17:03:46;10.13;;;5.05;;
27740;SDS011;15134;48.768;9.184;2022-10-18T17:06:16;12.90;;;7.00;;
27740;SDS011;15134;48.768;9.184;2022-10-18T17:08:50;12.15;;;7.95;;
27740;SDS011;15134;48.768;9.184;2022-10-18T17:11:17;11.77;;;6.95;;
27740;SDS011;15134;48.768;9.184;2022-10-18T17:13:44;31.60;;;18.73;;
27740;SDS011;15134;48.768;9.184;2022-10-18T17:18:50;21.58;;;13.57;;
27740;SDS011;15134;48.768;9.184;2022-10-18T17:21:16;13.83;;;9.60;;
27740;SDS011;15134;48.768;9.184;2022-10-18T17:23:42;12.00;;;7.63;;
27740;SDS011;15134;48.768;9.184;2022-10-18T17:26:15;8.30;;;5.47;;
27740;SDS011;15134;48.768;9.184;2022-10-18T17:28:42;12.25;;;6.95;;
27740;SDS011;15134;48.768;9.184;2022-10-18T17:31:08;10.37;;;5.77;;
27740;SDS011;15134;48.768;9.184;2022-10-18T17:33:34;9.33;;;5.20;;
27740;SDS011;15134;48.768;9.184;2022-10-18T17:36:00;14.35;;;7.20;;
27740;SDS011;15134;48.768;9.184;2022-10-18T17:38:26;15.05;;;6.88;;
27740;SDS011;15134;48.768;9.184;2022-10-18T17:40:52;10.97;;;7.40;;
27740;SDS011;15134;48.768;9.184;2022-10-18T17:43:18;12.80;;;10.35;;
27740;SDS011;15134;48.768;9.184;2022-10-18T17:45:47;12.40;;;7.77;;
27740;SDS011;15134;48.768;9.184;2022-10-18T17:48:16;28.17;;;17.50;;
27740;SDS011;15134;48.768;9.184;2022-10-18T17:50:41;40.17;;;27.52;;
27740;SDS011;15134;48.768;9.184;2022-10-18T17:53:07;29.37;;;20.23;;
27740;SDS011;15134;48.768;9.184;2022-10-18T17:55:34;19.67;;;10.00;;
27740;SDS011;15134;48.768;9.184;2022-10-18T17:58:00;18.43;;;12.47;;
27740;SDS011;15134;48.768;9.184;2022-10-18T18:00:26;20.17;;;11.17;;
27740;SDS011;15134;48.768;9.184;2022-10-18T18:02:55;16.92;;;9.75;;
27740;SDS011;15134;48.768;9.184;2022-10-18T18:05:21;14.20;;;7.05;;
27740;SDS011;15134;48.768;9.184;2022-10-18T18:07:47;9.03;;;5.90;;
27740;SDS011;15134;48.768;9.184;2022-10-18T18:10:12;10.90;;;5.73;;
27740;SDS011;15134;48.768;9.184;2022-10-18T18:12:38;11.53;;;6.30;;
27740;SDS011;15134;48.768;9.184;2022-10-18T18:15:04;11.33;;;6.23;;